createdAt,value
2018-02-06T00:01:14.202Z,52.67
2018-02-06T00:03:42.454Z,41.70
2018-02-06T00:06:10.349Z,30.27
2018-02-06T00:08:38.276Z,23.77
2018-02-06T00:11:06.191Z,25.97
2018-02-06T00:13:34.158Z,36.97
2018-02-06T00:16:02.140Z,27.77
2018-02-06T00:18:30.010Z,24.50
2018-02-06T00:20:57.974Z,25.03
2018-02-06T00:23:25.915Z,26.77
2018-02-06T00:25:53.759Z,26.80
2018-02-06T00:28:21.695Z,26.03
2018-02-06T00:30:49.662Z,30.17
2018-02-06T00:33:17.646Z,25.83
2018-02-06T00:35:46.229Z,25.27
2018-02-06T00:38:14.731Z,24.50
2018-02-06T00:40:43.319Z,21.90
2018-02-06T00:43:11.772Z,19.50
2018-02-06T00:45:40.274Z,18.93
2018-02-06T00:48:08.959Z,20.10
2018-02-06T00:50:36.882Z,19.30
2018-02-06T00:53:04.866Z,21.60
2018-02-06T00:55:32.808Z,21.03
2018-02-06T00:58:00.779Z,20.53
2018-02-06T01:00:28.746Z,17.70
2018-02-06T01:02:56.660Z,20.93
2018-02-06T01:05:24.838Z,20.70
2018-02-06T01:07:52.777Z,19.40
2018-02-06T01:10:20.709Z,20.00
2018-02-06T01:12:48.621Z,21.23
2018-02-06T01:15:16.513Z,19.30
2018-02-06T01:17:44.452Z,19.73
2018-02-06T01:20:12.477Z,18.83
2018-02-06T01:22:40.458Z,18.57
2018-02-06T01:25:08.469Z,20.27
2018-02-06T01:27:36.470Z,17.93
2018-02-06T01:30:04.425Z,15.87
2018-02-06T01:32:32.385Z,15.67
2018-02-06T01:35:00.326Z,11.53
2018-02-06T01:37:28.257Z,12.10
2018-02-06T01:39:56.204Z,12.33
2018-02-06T01:42:24.098Z,14.97
2018-02-06T01:44:52.037Z,13.50
2018-02-06T01:47:20.005Z,12.07
2018-02-06T01:50:00.462Z,9.90
2018-02-06T01:52:28.362Z,8.40
2018-02-06T01:54:56.299Z,10.10
2018-02-06T01:57:24.264Z,8.20
2018-02-06T01:59:52.175Z,9.00
2018-02-06T02:02:20.172Z,8.67
2018-02-06T02:04:48.126Z,9.23
2018-02-06T02:07:16.950Z,9.40
2018-02-06T02:09:45.534Z,10.00
2018-02-06T02:12:13.821Z,8.43
2018-02-06T02:14:42.607Z,10.30
2018-02-06T02:17:11.282Z,9.97
2018-02-06T02:19:39.223Z,8.77
2018-02-06T02:22:07.158Z,10.17
2018-02-06T02:24:35.021Z,9.13
2018-02-06T02:27:03.002Z,8.77
2018-02-06T02:29:30.902Z,9.80
2018-02-06T02:31:58.973Z,15.40
2018-02-06T02:34:27.469Z,15.20
2018-02-06T02:36:55.950Z,14.77
2018-02-06T02:39:24.831Z,15.20
2018-02-06T04:40:28.510Z,16.83
2018-02-06T04:42:56.450Z,12.63
2018-02-06T04:45:24.518Z,14.07
2018-02-06T04:47:52.477Z,13.57
2018-02-06T04:50:20.466Z,21.37
2018-02-06T04:52:48.427Z,224.03
2018-02-06T04:55:16.780Z,180.50
2018-02-06T04:57:44.722Z,23.53
2018-02-06T05:00:12.697Z,11.70
2018-02-06T05:02:40.703Z,43.10
2018-02-06T05:05:09.420Z,13.10
2018-02-06T05:07:37.799Z,13.67
2018-02-06T05:10:06.481Z,15.00
2018-02-06T05:12:35.375Z,23.97
2018-02-06T05:15:03.956Z,17.57
2018-02-06T05:17:32.235Z,14.50
2018-02-06T05:20:00.819Z,20.83
2018-02-06T05:22:29.113Z,16.60
2018-02-06T05:24:57.142Z,17.27
2018-02-06T05:27:25.670Z,29.00
2018-02-06T05:29:54.329Z,17.87
2018-02-06T05:32:22.927Z,20.07
2018-02-06T05:34:51.306Z,25.27
2018-02-06T05:37:19.769Z,40.30
2018-02-06T05:39:48.662Z,44.00
2018-02-06T05:42:17.059Z,37.40
2018-02-06T05:44:44.974Z,46.23
2018-02-06T05:47:13.486Z,85.47
2018-02-06T05:49:41.862Z,51.67
2018-02-06T05:52:10.250Z,51.53
2018-02-06T05:54:38.643Z,40.47
2018-02-06T05:57:07.817Z,40.20
2018-02-06T05:59:36.193Z,35.03
2018-02-06T06:02:04.993Z,518.17
2018-02-06T06:04:33.672Z,302.03
2018-02-06T06:07:02.051Z,251.87
2018-02-06T06:09:30.434Z,126.73
2018-02-06T06:11:59.015Z,458.77
2018-02-06T06:14:27.495Z,304.83
2018-02-06T06:16:56.075Z,88.97
2018-02-06T06:19:24.432Z,48.03
2018-02-06T06:21:53.034Z,61.30
2018-02-06T06:24:21.927Z,66.67
2018-02-06T06:26:50.608Z,61.70
2018-02-06T06:29:19.196Z,62.90
2018-02-06T06:31:47.874Z,74.40
2018-02-06T06:34:16.574Z,95.50
2018-02-06T06:36:45.051Z,340.50
2018-02-06T06:39:13.400Z,70.03
2018-02-06T06:41:42.741Z,102.17
2018-02-06T06:44:11.202Z,103.70
2018-02-06T06:46:39.883Z,71.07
2018-02-06T06:49:07.802Z,35.90
2018-02-06T06:51:35.739Z,69.40
2018-02-06T06:54:03.711Z,65.23
2018-02-06T06:56:33.236Z,54.60
2018-02-06T06:59:01.514Z,25.80
2018-02-06T07:01:29.501Z,19.17
2018-02-06T07:03:57.493Z,19.20
2018-02-06T07:06:25.531Z,18.33
2018-02-06T07:08:55.392Z,17.60
2018-02-06T07:11:23.806Z,18.80
2018-02-06T07:13:51.786Z,19.77
2018-02-06T07:16:19.918Z,23.43
2018-02-06T07:18:49.030Z,19.77
2018-02-06T07:21:18.042Z,17.33
2018-02-06T07:23:58.781Z,35.73
2018-02-06T07:26:26.695Z,17.40
2018-02-06T07:28:54.654Z,21.80
2018-02-06T07:31:22.961Z,23.47
2018-02-06T07:33:51.018Z,22.77
2018-02-06T07:36:19.051Z,19.93
2018-02-06T07:38:46.939Z,25.80
2018-02-06T07:41:14.926Z,32.80
2018-02-06T07:43:42.897Z,27.87
2018-02-06T07:46:10.891Z,58.50
2018-02-06T07:48:38.903Z,24.30
2018-02-06T07:51:06.909Z,39.60
2018-02-06T07:53:34.875Z,105.80
2018-02-06T07:56:02.852Z,26.67
2018-02-06T07:58:30.793Z,21.00
2018-02-06T08:00:59.062Z,22.80
2018-02-06T08:03:26.994Z,20.73
2018-02-06T08:05:54.953Z,19.53
2018-02-06T08:08:23.064Z,42.30
2018-02-06T08:10:51.023Z,22.20
2018-02-06T08:13:20.039Z,24.63
2018-02-06T08:15:47.956Z,22.50
2018-02-06T08:18:16.437Z,25.40
2018-02-06T08:20:44.487Z,34.20
2018-02-06T08:23:12.462Z,31.87
2018-02-06T08:25:40.382Z,32.20
2018-02-06T08:28:08.338Z,45.17
2018-02-06T08:30:36.352Z,36.07
2018-02-06T08:33:04.496Z,32.93
2018-02-06T08:35:32.525Z,44.00
2018-02-06T08:38:00.510Z,36.10
2018-02-06T08:40:28.485Z,40.23
2018-02-06T08:42:56.528Z,40.57
2018-02-06T08:45:24.482Z,68.80
2018-02-06T08:47:52.447Z,29.60
2018-02-06T08:50:20.543Z,29.33
2018-02-06T08:52:48.522Z,22.97
2018-02-06T08:55:16.524Z,40.37
2018-02-06T08:57:44.471Z,18.90
2018-02-06T09:00:12.374Z,19.60
2018-02-06T09:02:40.653Z,11.57
2018-02-06T09:05:08.628Z,13.03
2018-02-06T09:07:37.010Z,14.33
2018-02-06T09:10:04.930Z,14.87
2018-02-06T09:12:32.933Z,22.33
2018-02-06T09:15:01.974Z,14.60
2018-02-06T09:17:29.984Z,16.50
2018-02-06T09:19:58.280Z,18.63
2018-02-06T09:22:26.256Z,19.80
2018-02-06T09:24:54.746Z,47.63
2018-02-06T09:27:23.023Z,32.50
2018-02-06T09:29:51.606Z,35.17
2018-02-06T09:32:19.539Z,24.60
2018-02-06T09:34:47.511Z,21.47
2018-02-06T09:37:15.484Z,19.90
2018-02-06T09:39:43.579Z,18.87
2018-02-06T09:42:11.557Z,26.57
2018-02-06T09:44:39.929Z,27.13
2018-02-06T09:47:08.390Z,41.80
2018-02-06T09:49:36.891Z,69.73
2018-02-06T09:52:05.272Z,23.53
2018-02-06T09:54:33.502Z,31.97
2018-02-06T09:57:02.230Z,20.80
2018-02-06T09:59:30.595Z,17.53
2018-02-06T10:01:59.313Z,18.50
2018-02-06T10:04:28.188Z,17.80
2018-02-06T10:06:57.069Z,17.80
2018-02-06T10:09:25.658Z,15.00
2018-02-06T10:11:54.220Z,13.90
2018-02-06T10:14:22.239Z,14.60
2018-02-06T10:16:50.199Z,11.97
2018-02-06T10:19:18.655Z,17.43
2018-02-06T10:21:47.141Z,16.60
2018-02-06T10:24:15.152Z,11.00
2018-02-06T10:26:43.089Z,11.10
2018-02-06T10:29:11.072Z,13.00
2018-02-06T10:31:38.993Z,16.50
2018-02-06T10:34:06.989Z,12.40
2018-02-06T10:36:34.962Z,12.50
2018-02-06T10:39:03.733Z,13.20
2018-02-06T10:41:31.919Z,12.13
2018-02-06T10:43:59.931Z,15.77
2018-02-06T10:46:27.839Z,16.43
2018-02-06T10:48:55.792Z,14.97
2018-02-06T10:51:23.822Z,14.80
2018-02-06T10:53:52.265Z,18.73
2018-02-06T10:56:20.562Z,21.70
2018-02-06T10:58:49.017Z,16.23
2018-02-06T11:01:17.026Z,20.43
2018-02-06T11:03:44.953Z,13.60
2018-02-06T11:06:13.274Z,11.53
2018-02-06T11:08:41.247Z,13.20
2018-02-06T11:11:09.237Z,13.73
2018-02-06T11:13:37.194Z,17.17
2018-02-06T11:16:05.224Z,14.37
2018-02-06T11:18:33.173Z,13.27
2018-02-06T11:21:01.189Z,15.40
2018-02-06T11:23:29.523Z,19.30
2018-02-06T11:25:57.515Z,13.90
2018-02-06T11:28:25.453Z,17.07
2018-02-06T11:30:53.365Z,21.57
2018-02-06T11:33:21.705Z,14.30
2018-02-06T11:35:50.035Z,15.87
2018-02-06T11:38:18.662Z,15.70
2018-02-06T11:40:47.226Z,13.60
2018-02-06T11:43:15.490Z,13.70
2018-02-06T11:45:44.515Z,13.80
2018-02-06T11:48:13.022Z,15.80
2018-02-06T11:50:41.406Z,15.30
2018-02-06T11:53:09.329Z,15.90
2018-02-06T11:55:37.247Z,37.47
2018-02-06T11:58:05.168Z,14.83
2018-02-06T12:00:33.141Z,12.77
2018-02-06T12:03:01.130Z,22.23
2018-02-06T12:05:29.029Z,26.00
2018-02-06T12:07:57.235Z,18.40
2018-02-06T12:10:25.541Z,19.47
2018-02-06T12:12:54.111Z,23.80
2018-02-06T12:15:22.694Z,12.53
2018-02-06T12:17:50.899Z,14.60
2018-02-06T12:20:19.573Z,25.73
2018-02-06T12:22:48.445Z,16.40
2018-02-06T12:25:16.827Z,17.33
2018-02-06T12:27:44.813Z,21.60
2018-02-06T12:30:13.330Z,22.90
2018-02-06T12:32:41.954Z,20.47
2018-02-06T12:35:10.449Z,19.30
2018-02-06T12:37:38.454Z,17.73
2018-02-06T12:40:06.386Z,23.80
2018-02-06T12:42:34.293Z,32.33
2018-02-06T12:45:02.303Z,21.20
2018-02-06T12:47:30.190Z,13.37
2018-02-06T12:49:58.238Z,18.70
2018-02-06T12:52:26.197Z,20.50
2018-02-06T12:54:54.139Z,19.27
2018-02-06T12:57:22.074Z,22.77
2018-02-06T12:59:50.047Z,22.60
2018-02-06T13:02:17.986Z,44.77
2018-02-06T13:04:47.135Z,31.83
2018-02-06T13:07:15.089Z,30.27
2018-02-06T13:09:43.093Z,31.57
2018-02-06T13:12:11.162Z,48.77
2018-02-06T13:14:38.962Z,30.63
2018-02-06T13:17:06.979Z,27.30
2018-02-06T13:19:34.913Z,32.83
2018-02-06T13:22:02.895Z,31.23
2018-02-06T13:24:30.834Z,28.83
2018-02-06T13:26:59.218Z,17.97
2018-02-06T13:29:27.181Z,17.67
2018-02-06T13:31:55.153Z,19.60
2018-02-06T13:34:23.183Z,20.40
2018-02-06T13:36:51.099Z,29.53
2018-02-06T13:39:19.103Z,15.70
2018-02-06T13:41:47.038Z,34.07
2018-02-06T13:44:14.997Z,41.97
2018-02-06T13:46:42.990Z,62.40
2018-02-06T13:49:10.930Z,66.43
2018-02-06T13:51:38.893Z,55.17
2018-02-06T13:54:06.837Z,53.33
2018-02-06T13:56:34.837Z,43.50
2018-02-06T13:59:02.770Z,41.77
2018-02-06T14:01:30.739Z,40.27
2018-02-06T14:03:58.721Z,39.87
2018-02-06T14:06:26.698Z,39.00
2018-02-06T14:08:54.682Z,50.70
2018-02-06T14:11:22.626Z,38.43
2018-02-06T14:13:50.558Z,40.63
2018-02-06T14:16:18.554Z,38.17
2018-02-06T14:18:46.507Z,38.63
2018-02-06T14:21:14.466Z,55.53
2018-02-06T14:23:42.426Z,41.20
2018-02-06T14:26:10.380Z,33.20
2018-02-06T14:28:38.647Z,42.20
2018-02-06T14:31:06.578Z,43.07
2018-02-06T14:33:34.519Z,40.77
2018-02-06T14:36:02.475Z,45.17
2018-02-06T14:38:30.526Z,43.30
2018-02-06T14:40:58.425Z,47.83
2018-02-06T14:43:26.495Z,44.60
2018-02-06T14:45:54.472Z,64.43
2018-02-06T14:48:22.413Z,78.13
2018-02-06T14:50:50.525Z,59.80
2018-02-06T14:53:18.423Z,69.60
2018-02-06T14:55:46.394Z,65.60
2018-02-06T14:58:14.359Z,58.77
2018-02-06T15:00:42.296Z,53.67
2018-02-06T15:03:10.139Z,53.93
2018-02-06T15:05:38.062Z,51.70
2018-02-06T15:08:06.026Z,54.57
2018-02-06T15:10:33.985Z,50.73
2018-02-06T15:13:02.056Z,54.40
2018-02-06T15:15:30.463Z,57.17
2018-02-06T15:17:58.813Z,92.10
2018-02-06T15:20:27.300Z,77.10
2018-02-06T15:22:55.566Z,71.73
2018-02-06T15:25:24.051Z,69.57
2018-02-06T15:27:52.509Z,67.40
2018-02-06T15:30:21.321Z,63.33
2018-02-06T15:32:49.698Z,82.33
2018-02-06T15:35:18.180Z,92.63
2018-02-06T15:37:46.495Z,78.77
2018-02-06T15:40:15.342Z,74.30
2018-02-06T15:42:43.618Z,70.17
2018-02-06T15:45:12.111Z,65.43
2018-02-06T15:47:40.578Z,54.33
2018-02-06T15:50:08.981Z,77.67
2018-02-06T15:52:37.334Z,95.07
2018-02-06T15:55:05.723Z,96.60
2018-02-06T15:57:34.403Z,61.80
2018-02-06T16:00:02.779Z,61.13
2018-02-06T16:02:30.950Z,69.90
2018-02-06T16:04:59.530Z,97.77
2018-02-06T16:07:27.806Z,86.30
2018-02-06T16:09:56.798Z,71.13
2018-02-06T16:12:25.588Z,57.97
2018-02-06T16:14:54.378Z,66.00
2018-02-06T16:17:22.670Z,59.17
2018-02-06T16:19:51.341Z,49.53
2018-02-06T16:22:19.815Z,70.67
2018-02-06T16:24:47.989Z,81.90
2018-02-06T16:27:16.367Z,93.40
2018-02-06T16:29:44.641Z,121.80
2018-02-06T16:32:13.339Z,114.10
2018-02-06T16:34:41.914Z,83.40
2018-02-06T16:37:10.297Z,76.23
2018-02-06T16:39:38.668Z,79.87
2018-02-06T16:42:07.350Z,80.17
2018-02-06T16:44:35.838Z,66.33
2018-02-06T16:47:04.116Z,64.83
2018-02-06T16:49:32.426Z,78.40
2018-02-06T16:52:00.971Z,96.20
2018-02-06T16:54:29.649Z,101.13
2018-02-06T16:56:57.874Z,106.43
2018-02-06T16:59:26.511Z,100.27
2018-02-06T17:01:54.959Z,105.37
2018-02-06T17:04:23.276Z,94.00
2018-02-06T17:06:51.746Z,109.87
2018-02-06T17:09:20.117Z,90.70
2018-02-06T17:11:48.710Z,72.23
2018-02-06T17:14:16.878Z,80.40
2018-02-06T17:16:45.362Z,95.37
2018-02-06T17:19:13.662Z,101.37
2018-02-06T17:21:42.218Z,81.27
2018-02-06T17:24:10.502Z,68.80
2018-02-06T17:26:39.081Z,64.23
2018-02-06T17:29:07.762Z,61.50
2018-02-06T17:31:36.145Z,59.00
2018-02-06T17:34:04.727Z,63.77
2018-02-06T17:36:33.493Z,64.23
2018-02-06T17:39:01.790Z,70.77
2018-02-06T17:41:30.480Z,90.10
2018-02-06T17:43:58.934Z,82.80
2018-02-06T17:46:27.234Z,76.40
2018-02-06T17:48:55.606Z,73.83
2018-02-06T17:51:24.192Z,75.90
2018-02-06T17:53:52.608Z,80.67
2018-02-06T17:56:21.130Z,79.40
2018-02-06T17:58:49.634Z,65.87
2018-02-06T18:01:18.010Z,62.77
2018-02-06T18:03:46.898Z,57.33
2018-02-06T18:06:15.077Z,96.23
2018-02-06T18:08:43.553Z,72.23
2018-02-06T18:11:11.968Z,79.87
2018-02-06T18:13:40.619Z,62.20
2018-02-06T18:16:09.100Z,53.93
2018-02-06T18:18:37.487Z,46.43
2018-02-06T18:21:06.367Z,39.07
2018-02-06T18:23:35.164Z,40.40
2018-02-06T18:26:03.638Z,38.00
2018-02-06T18:28:32.058Z,51.20
2018-02-06T18:31:00.906Z,61.23
2018-02-06T18:33:29.586Z,69.87
2018-02-06T18:35:58.170Z,70.37
2018-02-06T18:38:26.667Z,91.90
2018-02-06T18:40:55.133Z,68.03
2018-02-06T18:43:23.719Z,58.40
2018-02-06T18:45:51.997Z,71.10
2018-02-06T18:48:20.470Z,68.20
2018-02-06T18:50:49.062Z,65.63
2018-02-06T18:53:17.491Z,117.83
2018-02-06T18:55:45.810Z,109.27
2018-02-06T18:58:14.124Z,108.50
2018-02-06T19:00:42.870Z,88.80
2018-02-06T19:03:11.258Z,87.63
2018-02-06T19:05:39.959Z,63.70
2018-02-06T19:08:08.422Z,59.97
2018-02-06T19:10:37.102Z,89.67
2018-02-06T19:13:05.894Z,85.80
2018-02-06T19:15:34.379Z,116.63
2018-02-06T19:18:03.188Z,101.67
2018-02-06T19:20:31.747Z,112.40
2018-02-06T19:23:00.453Z,74.63
2018-02-06T19:25:28.905Z,66.47
2018-02-06T19:27:57.527Z,68.50
2018-02-06T19:30:25.908Z,78.07
2018-02-06T19:32:54.349Z,70.80
2018-02-06T19:35:22.910Z,72.67
2018-02-06T19:37:51.687Z,107.17
2018-02-06T19:40:20.992Z,85.93
2018-02-06T19:42:49.285Z,70.80
2018-02-06T19:45:17.984Z,59.60
2018-02-06T19:47:46.577Z,59.63
2018-02-06T19:50:15.146Z,84.03
2018-02-06T19:52:43.522Z,81.13
2018-02-06T19:55:11.898Z,64.43
2018-02-06T19:57:40.175Z,54.70
2018-02-06T20:00:08.864Z,65.30
2018-02-06T20:02:37.386Z,52.70
2018-02-06T20:05:05.618Z,53.00
2018-02-06T20:07:33.810Z,53.93
2018-02-06T20:10:02.374Z,43.07
2018-02-06T20:12:30.771Z,40.77
2018-02-06T20:14:58.969Z,43.30
2018-02-06T20:17:27.306Z,42.73
2018-02-06T20:19:55.783Z,45.20
2018-02-06T20:22:24.671Z,43.07
2018-02-06T20:24:52.926Z,43.27
2018-02-06T20:27:21.333Z,44.13
2018-02-06T20:29:49.810Z,44.03
2018-02-06T20:32:18.195Z,50.90
2018-02-06T20:34:46.870Z,46.03
2018-02-06T20:37:15.372Z,42.10
2018-02-06T20:39:44.038Z,46.40
2018-02-06T20:42:12.306Z,50.60
2018-02-06T20:44:40.793Z,65.20
2018-02-06T20:47:09.090Z,68.70
2018-02-06T20:49:37.345Z,77.93
2018-02-06T20:52:05.723Z,75.70
2018-02-06T20:54:34.405Z,71.27
2018-02-06T20:57:02.997Z,55.60
2018-02-06T20:59:31.275Z,48.40
2018-02-06T21:01:59.853Z,42.93
2018-02-06T21:04:28.022Z,43.70
2018-02-06T21:06:56.605Z,42.97
2018-02-06T21:09:25.278Z,47.17
2018-02-06T21:11:53.771Z,54.83
2018-02-06T21:14:22.351Z,51.03
2018-02-06T21:16:50.860Z,52.97
2018-02-06T21:19:19.418Z,55.90
2018-02-06T21:21:47.794Z,53.30
2018-02-06T21:24:16.275Z,41.23
2018-02-06T21:26:44.655Z,30.47
2018-02-06T21:29:13.134Z,30.13
2018-02-06T21:31:42.022Z,31.23
2018-02-06T21:34:10.484Z,33.70
2018-02-06T21:36:38.778Z,34.00
2018-02-06T21:39:07.054Z,35.50
2018-02-06T21:41:35.638Z,35.93
2018-02-06T21:44:03.865Z,40.77
2018-02-06T21:46:32.429Z,36.53
2018-02-06T21:49:00.566Z,37.50
2018-02-06T21:51:29.046Z,34.20
2018-02-06T21:53:57.218Z,32.53
2018-02-06T21:56:25.802Z,38.80
2018-02-06T21:58:54.395Z,35.37
2018-02-06T22:01:22.470Z,33.73
2018-02-06T22:03:50.941Z,35.37
2018-02-06T22:06:19.399Z,32.20
2018-02-06T22:08:48.003Z,27.23
2018-02-06T22:11:16.374Z,25.07
2018-02-06T22:13:44.862Z,25.30
2018-02-06T22:16:13.358Z,23.77
2018-02-06T22:18:41.822Z,20.40
2018-02-06T22:21:10.189Z,19.50
2018-02-06T22:23:38.578Z,21.00
2018-02-06T22:26:06.945Z,19.10
2018-02-06T22:28:35.534Z,21.13
2018-02-06T22:31:03.918Z,27.77
2018-02-06T22:33:32.190Z,27.17
2018-02-06T22:36:00.507Z,24.57
2018-02-06T22:38:29.153Z,24.80
2018-02-06T22:40:57.589Z,25.67
2018-02-06T22:43:26.318Z,25.57
2018-02-06T22:45:55.003Z,28.23
2018-02-06T22:48:23.566Z,22.80
2018-02-06T22:50:51.861Z,22.37
2018-02-06T22:53:20.342Z,20.97
2018-02-06T22:55:48.424Z,19.60
2018-02-06T22:58:17.003Z,16.10
2018-02-06T23:00:45.530Z,15.50
2018-02-06T23:03:14.059Z,16.43
2018-02-06T23:05:42.542Z,15.80
2018-02-06T23:08:10.917Z,14.73
2018-02-06T23:10:39.194Z,15.13
2018-02-06T23:13:07.685Z,13.53
2018-02-06T23:15:36.160Z,14.33
2018-02-06T23:18:04.633Z,12.87
2018-02-06T23:20:33.253Z,13.03
2018-02-06T23:23:01.808Z,13.80
2018-02-06T23:25:30.158Z,20.97
2018-02-06T23:27:58.456Z,14.70
2018-02-06T23:30:26.914Z,14.70
2018-02-06T23:32:55.210Z,16.43
2018-02-06T23:35:23.897Z,16.57
2018-02-06T23:37:52.457Z,17.20
2018-02-06T23:40:21.067Z,28.23
2018-02-06T23:42:49.447Z,32.03
2018-02-06T23:45:17.923Z,19.90
2018-02-06T23:47:46.289Z,25.13
2018-02-06T23:50:14.777Z,21.60
2018-02-06T23:52:43.070Z,22.97
2018-02-06T23:55:11.534Z,23.53
2018-02-06T23:57:39.810Z,24.37
